メキシコシティ の空港の天気 - METARとTAF

メキシコ・シティ国際空港 ( MMMX / MEX ) - メキシコ メキシコシティ
飛行場実況気象(Metar)
観測時間01/22 22:43 CST (01/23 04:43 UTC)
風向・風速西北西 4m/s
視程10km以上
天気現象
少しの雲 雲底高度 2440m
全天の4割程度の雲 雲底高度 6100m
気温15℃
湿度48%
気圧1026hPa
METARMMMX 230443Z 30008KT 8SM FEW080 SCT200 15/04 A3029 NOSIG RMK 8/032 HZY
過去の天気等 Google飛行場航空写真 Wunderground天気予報

過去48時間のMETAR

飛行場予報(TAF)
発表時間: 1/22 23:06 CST (1/23 05:06 UTC)
予報対象時間: 23日0時 CST ~ 24日6時 CST
風向・風速西北西 4m/s
視程10km以上
全天の4割程度の雲 雲底高度 2,440m
全天の4割程度の雲 雲底高度 7,620m
23日12時 CST から
風向・風速東北東 6m/s
視程10km以上
全天の4割程度の雲 雲底高度 610m
全天の8割程度の雲 雲底高度 2,440m
全天の8割程度の雲 雲底高度 7,620m
23日17時 CST ~ 23日21時 CST に一時的に
全天の8割程度の雲 雲底高度 610m
24日0時 CST から
風向・風速北北西 3m/s
視程10km以上
全天の4割程度の雲 雲底高度 2,440m
TAF MMMX 230506Z 2306/2412 30008KT P6SM SCT080 SCT250 TX25/2321Z TN08/2312Z
FM231800 07012KT P6SM SCT020 BKN080 BKN250
TEMPO 2323/2403 BKN020
FM240600 34005KT P6SM SCT080